Time;durP1;ratioP1;P1;durP2;ratioP2;P2;SDS_P1;SDS_P2;PMS_P1;PMS_P2;Temp;Humidity;BMP_temperature;BMP_pressure;BME280_temperature;BME280_humidity;BME280_pressure;Samples;Min_cycle;Max_cycle;Signal;HPM_P1;HPM_P2
2024/02/16 00:00:17;;;;;;;243.10;77.32;;;;;;;;;;4994635;28;20976;-45
2024/02/16 00:02:44;;;;;;;245.32;80.80;;;;;;;;;;4994703;28;20563;-44
2024/02/16 00:05:13;;;;;;;243.90;80.95;;;;;;;;;;4994488;28;20176;-45
2024/02/16 00:07:41;;;;;;;242.10;80.35;;;;;;;;;;4994489;28;20223;-45
2024/02/16 00:10:09;;;;;;;244.70;83.18;;;;;;;;;;4994617;28;20243;-45
2024/02/16 00:12:35;;;;;;;244.43;81.05;;;;;;;;;;4994623;28;20278;-44
2024/02/16 00:15:01;;;;;;;245.38;82.55;;;;;;;;;;4994164;28;20687;-45
2024/02/16 00:17:27;;;;;;;242.40;79.82;;;;;;;;;;4994483;28;20248;-45
2024/02/16 00:19:57;;;;;;;249.27;83.88;;;;;;;;;;4993926;28;20616;-45
2024/02/16 00:22:23;;;;;;;244.93;81.68;;;;;;;;;;4994351;28;20711;-45
2024/02/16 00:24:49;;;;;;;244.47;79.90;;;;;;;;;;4994282;28;20182;-45
2024/02/16 00:27:15;;;;;;;244.07;79.75;;;;;;;;;;4994017;28;20462;-44
2024/02/16 00:29:43;;;;;;;244.20;79.90;;;;;;;;;;4991245;28;20206;-45
2024/02/16 00:32:10;;;;;;;245.05;81.40;;;;;;;;;;4994242;28;20614;-45
2024/02/16 00:34:37;;;;;;;245.98;82.43;;;;;;;;;;4993950;28;20723;-45
2024/02/16 00:37:09;;;;;;;242.60;79.20;;;;;;;;;;4994021;28;20181;-44
2024/02/16 00:39:35;;;;;;;246.55;84.78;;;;;;;;;;4994311;28;20204;-45
2024/02/16 00:42:01;;;;;;;244.70;82.93;;;;;;;;;;4994009;28;20242;-44
2024/02/16 00:44:27;;;;;;;244.93;82.17;;;;;;;;;;4994220;28;20185;-45
2024/02/16 00:46:53;;;;;;;244.67;81.87;;;;;;;;;;4993869;28;20806;-45
2024/02/16 00:49:19;;;;;;;245.57;82.43;;;;;;;;;;4993942;28;20467;-45
2024/02/16 00:51:45;;;;;;;243.83;81.23;;;;;;;;;;4993797;28;20495;-45
2024/02/16 00:54:11;;;;;;;246.13;83.93;;;;;;;;;;4993950;28;20404;-45
2024/02/16 00:56:38;;;;;;;244.05;80.70;;;;;;;;;;4992951;28;20503;-45
2024/02/16 00:59:09;;;;;;;241.23;79.20;;;;;;;;;;4993546;28;20200;-45
2024/02/16 01:01:35;;;;;;;246.73;83.18;;;;;;;;;;4993526;28;20240;-45
2024/02/16 01:04:04;;;;;;;243.40;79.80;;;;;;;;;;4993658;28;20256;-45
2024/02/16 01:06:30;;;;;;;243.73;78.97;;;;;;;;;;4992974;28;20495;-45
2024/02/16 01:08:59;;;;;;;245.43;81.23;;;;;;;;;;4993715;28;20582;-45
2024/02/16 01:11:25;;;;;;;246.43;80.07;;;;;;;;;;4993419;28;20424;-44
2024/02/16 01:13:52;;;;;;;244.95;79.85;;;;;;;;;;4993581;28;20180;-45
2024/02/16 01:16:21;;;;;;;244.52;79.50;;;;;;;;;;4993220;28;20171;-44
2024/02/16 01:18:47;;;;;;;247.80;82.88;;;;;;;;;;4993477;28;20201;-45
2024/02/16 01:21:13;;;;;;;243.70;79.47;;;;;;;;;;4993362;28;20168;-44
2024/02/16 01:23:39;;;;;;;244.63;78.75;;;;;;;;;;4992583;28;20864;-45
2024/02/16 01:26:05;;;;;;;244.67;80.97;;;;;;;;;;4993068;28;20211;-44
2024/02/16 01:28:31;;;;;;;244.77;80.00;;;;;;;;;;4993010;28;20636;-45
2024/02/16 01:30:57;;;;;;;241.75;76.90;;;;;;;;;;4993375;28;20491;-45
2024/02/16 01:33:23;;;;;;;242.50;78.97;;;;;;;;;;4993504;28;20787;-45
2024/02/16 01:35:49;;;;;;;247.35;83.43;;;;;;;;;;4992754;28;20408;-45
2024/02/16 01:38:15;;;;;;;244.20;79.40;;;;;;;;;;4993292;28;20234;-45
2024/02/16 01:40:41;;;;;;;245.67;81.20;;;;;;;;;;4993299;28;20404;-45
2024/02/16 01:43:07;;;;;;;245.37;79.43;;;;;;;;;;4993292;28;20797;-44
2024/02/16 01:45:32;;;;;;;246.13;81.27;;;;;;;;;;4992408;28;20785;-45
2024/02/16 01:47:59;;;;;;;241.73;76.83;;;;;;;;;;4992614;28;20911;-44
2024/02/16 01:50:25;;;;;;;247.63;80.75;;;;;;;;;;4993080;28;20435;-45
2024/02/16 01:52:52;;;;;;;246.70;83.00;;;;;;;;;;4992893;28;20173;-45
2024/02/16 01:55:18;;;;;;;246.05;82.28;;;;;;;;;;4992766;28;20165;-45
2024/02/16 01:57:45;;;;;;;244.18;80.38;;;;;;;;;;4993352;28;20219;-45
2024/02/16 02:00:14;;;;;;;244.98;79.55;;;;;;;;;;4992740;28;20212;-45
2024/02/16 02:02:40;;;;;;;245.23;79.63;;;;;;;;;;4991784;28;20213;-44
2024/02/16 02:05:06;;;;;;;246.53;82.27;;;;;;;;;;4992117;28;20180;-45
2024/02/16 02:07:32;;;;;;;248.05;83.22;;;;;;;;;;4992300;28;20708;-45
2024/02/16 02:09:59;;;;;;;245.45;80.68;;;;;;;;;;4993026;28;20192;-44
2024/02/16 02:12:25;;;;;;;245.25;81.80;;;;;;;;;;4992513;28;20667;-44
2024/02/16 02:14:51;;;;;;;246.02;81.50;;;;;;;;;;4992518;28;20273;-45
2024/02/16 02:17:18;;;;;;;244.93;79.77;;;;;;;;;;4992188;28;20177;-45
2024/02/16 02:19:45;;;;;;;257.05;88.35;;;;;;;;;;4989446;28;20522;-44
2024/02/16 02:22:21;;;;;;;243.48;79.38;;;;;;;;;;4991239;28;20235;-45
2024/02/16 02:24:48;;;;;;;245.77;82.18;;;;;;;;;;4991429;28;20271;-45
2024/02/16 02:27:14;;;;;;;245.32;82.43;;;;;;;;;;4991732;28;20181;-44
2024/02/16 02:29:41;;;;;;;245.73;79.70;;;;;;;;;;4992349;28;20564;-45
2024/02/16 02:32:07;;;;;;;245.43;81.28;;;;;;;;;;4987352;28;20177;-45
2024/02/16 02:34:33;;;;;;;246.23;81.80;;;;;;;;;;4991889;28;20179;-45
2024/02/16 02:36:59;;;;;;;243.63;80.28;;;;;;;;;;4991798;28;20203;-44
2024/02/16 02:39:25;;;;;;;246.07;80.78;;;;;;;;;;4991769;28;20197;-45
2024/02/16 02:41:52;;;;;;;249.15;82.25;;;;;;;;;;4992041;28;20180;-44
2024/02/16 02:44:19;;;;;;;245.25;79.95;;;;;;;;;;4992311;28;20573;-45
2024/02/16 02:46:45;;;;;;;244.30;79.80;;;;;;;;;;4991341;28;20268;-45
2024/02/16 02:49:11;;;;;;;242.77;78.55;;;;;;;;;;4991631;28;20203;-45
2024/02/16 02:51:37;;;;;;;243.83;81.13;;;;;;;;;;4991588;28;20603;-45
2024/02/16 02:54:03;;;;;;;243.80;81.25;;;;;;;;;;4991601;28;20404;-45
2024/02/16 02:56:29;;;;;;;243.20;78.40;;;;;;;;;;4991213;28;20169;-44
2024/02/16 02:58:55;;;;;;;244.00;79.00;;;;;;;;;;4991449;28;20216;-44
2024/02/16 03:01:22;;;;;;;245.03;80.90;;;;;;;;;;4992360;28;20420;-44
2024/02/16 03:03:48;;;;;;;245.07;80.68;;;;;;;;;;4991552;28;20907;-45
2024/02/16 03:06:17;;;;;;;246.23;80.15;;;;;;;;;;4991520;28;20720;-45
2024/02/16 03:08:43;;;;;;;246.38;82.50;;;;;;;;;;4988980;28;20204;-44
2024/02/16 03:11:10;;;;;;;245.55;81.32;;;;;;;;;;4991478;28;20645;-45
2024/02/16 03:13:37;;;;;;;245.85;81.70;;;;;;;;;;4991248;28;20674;-44
2024/02/16 03:16:03;;;;;;;244.85;80.18;;;;;;;;;;4986077;28;20244;-44
2024/02/16 03:18:35;;;;;;;245.60;81.03;;;;;;;;;;4991274;28;20557;-45
2024/02/16 03:21:01;;;;;;;245.75;80.63;;;;;;;;;;4991440;28;20318;-44
2024/02/16 03:23:27;;;;;;;244.05;80.43;;;;;;;;;;4991358;28;20252;-43
2024/02/16 03:25:54;;;;;;;246.85;82.40;;;;;;;;;;4991123;28;20188;-44
2024/02/16 03:28:21;;;;;;;246.85;80.97;;;;;;;;;;4990667;28;20239;-44
2024/02/16 03:30:47;;;;;;;246.75;81.20;;;;;;;;;;4995403;28;20173;-44
2024/02/16 03:33:13;;;;;;;244.97;79.37;;;;;;;;;;4997895;28;20188;-45
2024/02/16 03:35:43;;;;;;;243.93;78.07;;;;;;;;;;4997497;28;20434;-44
2024/02/16 03:38:09;;;;;;;244.52;78.90;;;;;;;;;;4997750;28;20413;-45
2024/02/16 03:40:35;;;;;;;244.95;80.95;;;;;;;;;;4997655;28;20555;-44
2024/02/16 03:43:01;;;;;;;245.37;77.07;;;;;;;;;;4997617;28;20175;-45
2024/02/16 03:45:27;;;;;;;246.00;81.60;;;;;;;;;;4997521;28;20486;-44
2024/02/16 03:47:53;;;;;;;244.23;80.25;;;;;;;;;;4997812;28;20462;-44
2024/02/16 03:50:20;;;;;;;243.25;77.88;;;;;;;;;;4997673;28;20565;-45
2024/02/16 03:52:46;;;;;;;244.88;77.68;;;;;;;;;;4997735;28;20172;-44
2024/02/16 03:55:12;;;;;;;247.80;81.80;;;;;;;;;;4997554;28;20181;-45
2024/02/16 03:57:38;;;;;;;244.40;77.37;;;;;;;;;;4997719;28;20407;-45
2024/02/16 04:00:05;;;;;;;243.60;78.88;;;;;;;;;;4997585;28;20450;-44
2024/02/16 04:02:32;;;;;;;245.25;80.07;;;;;;;;;;4997644;28;20177;-44
2024/02/16 04:04:58;;;;;;;245.57;79.85;;;;;;;;;;4997424;28;20173;-44
2024/02/16 04:07:24;;;;;;;241.35;76.40;;;;;;;;;;4997375;28;20200;-44
2024/02/16 04:09:50;;;;;;;246.67;82.10;;;;;;;;;;4997215;28;20244;-45
2024/02/16 04:12:16;;;;;;;242.18;78.03;;;;;;;;;;4997731;28;20408;-45
2024/02/16 04:14:43;;;;;;;245.55;79.95;;;;;;;;;;4997582;28;20649;-44
2024/02/16 04:17:09;;;;;;;248.30;83.15;;;;;;;;;;4997743;28;20568;-44
2024/02/16 04:19:37;;;;;;;242.60;76.53;;;;;;;;;;4997523;28;20219;-45
2024/02/16 04:22:03;;;;;;;244.52;79.10;;;;;;;;;;4993286;28;20420;-45
2024/02/16 04:24:29;;;;;;;245.65;81.95;;;;;;;;;;4997089;28;20177;-44
2024/02/16 04:26:55;;;;;;;246.63;81.22;;;;;;;;;;4997004;28;20184;-44
2024/02/16 04:29:21;;;;;;;242.93;78.55;;;;;;;;;;4998194;28;20291;-45
2024/02/16 04:31:47;;;;;;;242.47;79.47;;;;;;;;;;4997484;28;20267;-44
2024/02/16 04:34:14;;;;;;;243.13;76.47;;;;;;;;;;4997377;28;20408;-44
2024/02/16 04:36:41;;;;;;;244.25;77.57;;;;;;;;;;4997405;28;20807;-44
2024/02/16 04:39:09;;;;;;;244.25;77.90;;;;;;;;;;4997224;28;20200;-45
2024/02/16 04:41:35;;;;;;;241.65;75.70;;;;;;;;;;4995574;28;20200;-45
2024/02/16 04:44:01;;;;;;;240.47;76.80;;;;;;;;;;4994346;28;20209;-44
2024/02/16 04:46:27;;;;;;;242.43;77.07;;;;;;;;;;4994145;28;20459;-44
2024/02/16 04:48:54;;;;;;;244.00;77.10;;;;;;;;;;4993774;28;20816;-44
2024/02/16 04:51:20;;;;;;;242.93;75.43;;;;;;;;;;4994049;28;20184;-45
2024/02/16 04:53:46;;;;;;;243.90;78.00;;;;;;;;;;4993817;28;20173;-45
2024/02/16 04:56:12;;;;;;;241.60;76.87;;;;;;;;;;4994490;28;20411;-44
2024/02/16 04:58:41;;;;;;;244.97;81.30;;;;;;;;;;4993495;28;20939;-44
2024/02/16 05:01:07;;;;;;;242.20;77.65;;;;;;;;;;4993792;28;20469;-45
2024/02/16 05:03:33;;;;;;;243.17;78.47;;;;;;;;;;4993887;28;20267;-44
2024/02/16 05:06:00;;;;;;;241.80;77.17;;;;;;;;;;4993380;28;20419;-44
2024/02/16 05:08:26;;;;;;;244.85;78.53;;;;;;;;;;4993317;28;20460;-44
2024/02/16 05:10:52;;;;;;;241.07;77.23;;;;;;;;;;4993805;28;20211;-45
2024/02/16 05:13:18;;;;;;;241.37;78.47;;;;;;;;;;4993700;28;20505;-44
2024/02/16 05:15:44;;;;;;;245.53;83.30;;;;;;;;;;4990957;28;20943;-45
2024/02/16 05:18:12;;;;;;;245.53;82.20;;;;;;;;;;4992906;28;20990;-44
2024/02/16 05:20:38;;;;;;;247.32;84.90;;;;;;;;;;4993262;28;20435;-44
2024/02/16 05:23:04;;;;;;;241.63;78.40;;;;;;;;;;4993829;28;20188;-45
2024/02/16 05:25:30;;;;;;;245.45;81.47;;;;;;;;;;4993364;28;20180;-45
2024/02/16 05:27:56;;;;;;;244.48;80.78;;;;;;;;;;4993491;28;20199;-44
2024/02/16 05:30:22;;;;;;;245.53;79.97;;;;;;;;;;4993429;28;20216;-44
2024/02/16 05:32:48;;;;;;;243.23;76.57;;;;;;;;;;4993786;28;20408;-45
2024/02/16 05:35:16;;;;;;;246.80;81.15;;;;;;;;;;4993037;28;20404;-44
2024/02/16 05:37:44;;;;;;;241.13;76.18;;;;;;;;;;4993196;28;20651;-45
2024/02/16 05:40:22;;;;;;;243.80;76.88;;;;;;;;;;4993220;28;20193;-44
2024/02/16 05:42:48;;;;;;;243.32;76.93;;;;;;;;;;4993326;28;20207;-44
2024/02/16 05:45:15;;;;;;;248.10;83.22;;;;;;;;;;4993238;28;20592;-44
2024/02/16 05:47:45;;;;;;;241.50;76.35;;;;;;;;;;4992851;28;20258;-45
2024/02/16 05:50:11;;;;;;;242.80;76.85;;;;;;;;;;4993117;28;20197;-44
2024/02/16 05:52:37;;;;;;;243.25;77.00;;;;;;;;;;4992957;28;20514;-45
2024/02/16 05:55:04;;;;;;;243.95;79.47;;;;;;;;;;4991838;28;20203;-45
2024/02/16 05:57:30;;;;;;;242.80;77.30;;;;;;;;;;4992669;28;20172;-45
2024/02/16 05:59:56;;;;;;;242.17;76.83;;;;;;;;;;4992610;28;20216;-44
2024/02/16 06:02:25;;;;;;;239.47;75.13;;;;;;;;;;4992067;28;20443;-44
2024/02/16 06:04:51;;;;;;;242.07;74.68;;;;;;;;;;4992171;28;20475;-44
2024/02/16 06:07:17;;;;;;;240.80;73.80;;;;;;;;;;4992314;28;20640;-45
2024/02/16 06:09:43;;;;;;;241.53;74.63;;;;;;;;;;4991968;28;20475;-45
2024/02/16 06:12:09;;;;;;;240.27;72.53;;;;;;;;;;4992339;28;20416;-45
2024/02/16 06:14:39;;;;;;;243.80;76.72;;;;;;;;;;4992092;28;20419;-44
2024/02/16 06:17:05;;;;;;;240.52;72.97;;;;;;;;;;4990526;28;20184;-45
2024/02/16 06:19:31;;;;;;;242.10;76.60;;;;;;;;;;4991760;28;20208;-45
2024/02/16 06:21:57;;;;;;;240.30;73.17;;;;;;;;;;4991243;28;20192;-45
2024/02/16 06:24:23;;;;;;;242.10;75.45;;;;;;;;;;4991484;28;20412;-45
2024/02/16 06:26:51;;;;;;;252.63;83.32;;;;;;;;;;4989967;28;20190;-45
2024/02/16 06:29:17;;;;;;;241.65;76.45;;;;;;;;;;4990560;28;20236;-45
2024/02/16 06:31:43;;;;;;;243.90;77.53;;;;;;;;;;4991963;28;20297;-45
2024/02/16 06:34:09;;;;;;;245.53;79.47;;;;;;;;;;4990883;28;20835;-45
2024/02/16 06:36:35;;;;;;;243.10;74.60;;;;;;;;;;4990172;28;20442;-45
2024/02/16 06:39:01;;;;;;;246.43;77.00;;;;;;;;;;4990467;28;20196;-44
2024/02/16 06:41:27;;;;;;;243.68;76.63;;;;;;;;;;4991233;28;20415;-45
2024/02/16 06:43:53;;;;;;;241.23;74.77;;;;;;;;;;4991300;28;20219;-45
2024/02/16 06:46:19;;;;;;;244.17;78.63;;;;;;;;;;4990539;28;20474;-44
2024/02/16 06:48:45;;;;;;;239.40;71.70;;;;;;;;;;4991803;28;20464;-44
2024/02/16 06:51:11;;;;;;;243.93;77.80;;;;;;;;;;4991811;28;20504;-45
2024/02/16 06:53:37;;;;;;;240.87;74.70;;;;;;;;;;4991799;28;20408;-45
2024/02/16 06:56:03;;;;;;;239.70;73.30;;;;;;;;;;4991474;28;20417;-44
2024/02/16 06:58:29;;;;;;;240.30;72.20;;;;;;;;;;4991484;28;20447;-45
2024/02/16 07:00:55;;;;;;;243.10;77.22;;;;;;;;;;4991953;28;20408;-45
2024/02/16 07:03:22;;;;;;;242.85;77.15;;;;;;;;;;4991842;28;20177;-45
2024/02/16 07:05:48;;;;;;;242.70;75.43;;;;;;;;;;4991173;28;20185;-45
2024/02/16 07:08:14;;;;;;;239.03;73.77;;;;;;;;;;4991777;28;20568;-45
2024/02/16 07:10:40;;;;;;;239.93;74.63;;;;;;;;;;4991497;28;20424;-45
2024/02/16 07:13:06;;;;;;;239.95;71.85;;;;;;;;;;4991546;28;20169;-45
2024/02/16 07:15:32;;;;;;;243.17;77.60;;;;;;;;;;4989978;28;20536;-45
2024/02/16 07:17:59;;;;;;;239.48;72.13;;;;;;;;;;4991505;28;20463;-44
2024/02/16 07:20:25;;;;;;;243.20;76.25;;;;;;;;;;4991448;28;20558;-44
2024/02/16 07:22:51;;;;;;;241.07;74.57;;;;;;;;;;4991803;28;20214;-45
2024/02/16 07:25:17;;;;;;;242.63;76.18;;;;;;;;;;4991262;28;20443;-45
2024/02/16 07:27:43;;;;;;;243.05;78.00;;;;;;;;;;4991370;28;20441;-44
2024/02/16 07:30:13;;;;;;;241.65;76.90;;;;;;;;;;4991211;28;20579;-44
2024/02/16 07:32:39;;;;;;;241.50;76.20;;;;;;;;;;4991304;28;20253;-44
2024/02/16 07:35:05;;;;;;;246.47;79.77;;;;;;;;;;4991128;28;20656;-45
2024/02/16 07:37:31;;;;;;;239.77;74.10;;;;;;;;;;4991235;28;20404;-45
2024/02/16 07:39:57;;;;;;;242.05;74.82;;;;;;;;;;4991342;28;20676;-44
2024/02/16 07:42:23;;;;;;;239.17;72.17;;;;;;;;;;4991186;28;20180;-45
2024/02/16 07:44:50;;;;;;;240.67;73.97;;;;;;;;;;4991411;28;20498;-44
2024/02/16 07:47:17;;;;;;;240.90;74.65;;;;;;;;;;4991203;28;20416;-45
2024/02/16 07:49:43;;;;;;;238.85;72.97;;;;;;;;;;4991204;28;20212;-44
2024/02/16 07:52:09;;;;;;;240.27;73.43;;;;;;;;;;4991196;28;20271;-44
2024/02/16 07:54:35;;;;;;;241.13;72.33;;;;;;;;;;4991608;28;20484;-44
2024/02/16 07:57:01;;;;;;;241.87;76.70;;;;;;;;;;4990784;28;20413;-45
2024/02/16 07:59:27;;;;;;;243.67;79.57;;;;;;;;;;4990866;28;20451;-45
2024/02/16 08:01:53;;;;;;;244.20;78.95;;;;;;;;;;4991079;28;20415;-45
2024/02/16 08:04:19;;;;;;;243.67;80.00;;;;;;;;;;4988273;28;20211;-45
2024/02/16 08:06:45;;;;;;;243.77;78.00;;;;;;;;;;4990187;28;20433;-45
2024/02/16 08:09:11;;;;;;;242.30;78.17;;;;;;;;;;4990745;28;20465;-45
2024/02/16 08:11:37;;;;;;;243.57;78.95;;;;;;;;;;4987915;28;20408;-44
2024/02/16 08:14:03;;;;;;;241.77;78.67;;;;;;;;;;4992836;28;20529;-45
2024/02/16 08:16:29;;;;;;;248.07;80.57;;;;;;;;;;4988962;28;20912;-45
2024/02/16 08:18:55;;;;;;;247.13;79.22;;;;;;;;;;4992549;28;20785;-45
2024/02/16 08:21:21;;;;;;;245.77;79.67;;;;;;;;;;4993043;28;20223;-45
2024/02/16 08:23:47;;;;;;;246.57;81.60;;;;;;;;;;4992491;28;20430;-45
2024/02/16 08:26:13;;;;;;;245.70;82.15;;;;;;;;;;4993748;28;20408;-44
2024/02/16 08:28:39;;;;;;;243.00;77.53;;;;;;;;;;4994070;28;20259;-45
2024/02/16 08:31:06;;;;;;;245.83;81.07;;;;;;;;;;4994669;28;20200;-45
2024/02/16 08:33:36;;;;;;;242.57;76.63;;;;;;;;;;4994374;28;20418;-45
2024/02/16 08:36:02;;;;;;;247.30;84.05;;;;;;;;;;4990076;28;20208;-45
2024/02/16 08:38:28;;;;;;;246.52;82.57;;;;;;;;;;4993940;28;20738;-45
2024/02/16 08:40:54;;;;;;;243.37;79.80;;;;;;;;;;4993988;28;20185;-45
2024/02/16 08:43:20;;;;;;;252.50;87.77;;;;;;;;;;4994041;28;20415;-45
2024/02/16 08:45:46;;;;;;;246.73;83.57;;;;;;;;;;4993813;28;20471;-45
2024/02/16 08:48:12;;;;;;;243.40;79.55;;;;;;;;;;4994188;28;20443;-45
2024/02/16 08:50:38;;;;;;;248.10;81.53;;;;;;;;;;4993863;28;20684;-44
2024/02/16 08:53:04;;;;;;;249.13;83.77;;;;;;;;;;4993916;28;20188;-44
2024/02/16 08:55:31;;;;;;;253.05;86.90;;;;;;;;;;4993751;28;20412;-45
2024/02/16 08:57:57;;;;;;;249.63;84.20;;;;;;;;;;4993695;28;20722;-45
2024/02/16 09:00:26;;;;;;;248.50;83.25;;;;;;;;;;4994486;28;20212;-44
2024/02/16 09:02:53;;;;;;;256.40;83.47;;;;;;;;;;4993915;28;20173;-44
2024/02/16 09:05:19;;;;;;;251.98;83.60;;;;;;;;;;4993372;28;20203;-44
2024/02/16 09:07:47;;;;;;;250.38;82.00;;;;;;;;;;4993269;28;20173;-44
2024/02/16 09:10:14;;;;;;;247.70;80.90;;;;;;;;;;4993601;28;20184;-44
2024/02/16 09:12:40;;;;;;;248.00;81.70;;;;;;;;;;4993426;28;20173;-45
2024/02/16 09:15:06;;;;;;;250.40;84.97;;;;;;;;;;4993153;28;20196;-44
2024/02/16 09:17:32;;;;;;;258.77;89.13;;;;;;;;;;4993502;28;20401;-44
2024/02/16 09:19:58;;;;;;;251.10;84.30;;;;;;;;;;4993433;28;20205;-45
2024/02/16 09:22:25;;;;;;;260.27;88.47;;;;;;;;;;4993062;28;20705;-44
2024/02/16 09:24:51;;;;;;;258.88;86.15;;;;;;;;;;4993626;28;20436;-44
2024/02/16 09:27:17;;;;;;;257.52;84.20;;;;;;;;;;4993071;28;20183;-45
2024/02/16 09:29:43;;;;;;;257.97;84.43;;;;;;;;;;4993199;28;20205;-44
2024/02/16 09:32:09;;;;;;;258.93;83.77;;;;;;;;;;4993464;28;20410;-45
2024/02/16 09:34:35;;;;;;;250.38;85.03;;;;;;;;;;4993291;28;20412;-44
2024/02/16 09:37:01;;;;;;;245.57;78.97;;;;;;;;;;4992863;28;20555;-44
2024/02/16 09:39:28;;;;;;;246.48;78.75;;;;;;;;;;4992518;28;20451;-44
2024/02/16 09:41:54;;;;;;;246.35;81.57;;;;;;;;;;4992696;28;20653;-44
2024/02/16 09:44:21;;;;;;;252.65;86.03;;;;;;;;;;4992287;28;20727;-44
2024/02/16 09:46:47;;;;;;;251.43;85.78;;;;;;;;;;4992267;28;20184;-44
2024/02/16 09:49:13;;;;;;;249.77;85.13;;;;;;;;;;4991630;28;20585;-44
2024/02/16 09:51:44;;;;;;;251.57;85.57;;;;;;;;;;4992339;28;20451;-45
2024/02/16 09:54:10;;;;;;;246.98;82.88;;;;;;;;;;4992869;28;20408;-44
2024/02/16 09:56:36;;;;;;;246.77;80.80;;;;;;;;;;4992446;28;20221;-44
2024/02/16 09:59:02;;;;;;;249.37;83.53;;;;;;;;;;4992066;28;20448;-44
2024/02/16 10:01:29;;;;;;;251.67;84.30;;;;;;;;;;4989270;28;20788;-44
2024/02/16 10:04:00;;;;;;;249.10;82.95;;;;;;;;;;4992718;28;20922;-44
2024/02/16 10:06:26;;;;;;;255.02;86.68;;;;;;;;;;4992390;28;20180;-44
2024/02/16 10:08:53;;;;;;;252.13;86.03;;;;;;;;;;4991993;28;20216;-44
2024/02/16 10:11:20;;;;;;;254.13;86.30;;;;;;;;;;4990705;28;20822;-45
2024/02/16 10:14:02;;;;;;;250.63;86.05;;;;;;;;;;4991239;28;20177;-44
2024/02/16 10:16:28;;;;;;;249.82;86.20;;;;;;;;;;4991961;28;20542;-44
2024/02/16 10:18:56;;;;;;;248.50;84.38;;;;;;;;;;4991721;28;20207;-44
2024/02/16 10:21:28;;;;;;;249.32;87.50;;;;;;;;;;4991313;28;20176;-44
2024/02/16 10:24:07;;;;;;;249.20;81.70;;;;;;;;;;4992182;28;20220;-44
2024/02/16 10:26:37;;;;;;;248.13;80.28;;;;;;;;;;4992248;28;20176;-44
2024/02/16 10:29:03;;;;;;;250.80;87.32;;;;;;;;;;4990741;28;20205;-44
2024/02/16 10:31:31;;;;;;;251.18;85.10;;;;;;;;;;4992463;28;20323;-44
2024/02/16 10:34:06;;;;;;;250.60;86.32;;;;;;;;;;4992154;28;20176;-44
2024/02/16 10:36:33;;;;;;;250.43;84.60;;;;;;;;;;4991840;28;20178;-45
2024/02/16 10:39:02;;;;;;;250.88;84.53;;;;;;;;;;4991423;28;20252;-44
2024/02/16 10:41:28;;;;;;;250.50;84.45;;;;;;;;;;4987820;28;20203;-45
2024/02/16 10:43:55;;;;;;;252.10;84.72;;;;;;;;;;4991668;28;20186;-45
2024/02/16 10:46:21;;;;;;;251.52;84.40;;;;;;;;;;4991585;28;20692;-45
2024/02/16 10:48:48;;;;;;;249.80;82.38;;;;;;;;;;4991830;28;20218;-44
2024/02/16 10:51:15;;;;;;;252.88;87.53;;;;;;;;;;4992009;28;20221;-44
2024/02/16 10:53:42;;;;;;;257.55;89.53;;;;;;;;;;4990757;28;20206;-45
2024/02/16 10:56:08;;;;;;;251.50;85.20;;;;;;;;;;4989828;28;20178;-44
2024/02/16 10:58:34;;;;;;;250.15;84.47;;;;;;;;;;4991381;28;20735;-44
2024/02/16 11:01:08;;;;;;;249.13;84.40;;;;;;;;;;4991882;28;20271;-45
2024/02/16 11:03:34;;;;;;;252.20;85.60;;;;;;;;;;4991627;28;20489;-45
2024/02/16 11:06:00;;;;;;;264.07;94.67;;;;;;;;;;4991393;28;20406;-45
2024/02/16 11:08:27;;;;;;;258.53;85.63;;;;;;;;;;4991462;28;20460;-45
2024/02/16 11:11:00;;;;;;;254.57;89.22;;;;;;;;;;4991783;28;20419;-44
2024/02/16 11:13:27;;;;;;;252.77;86.60;;;;;;;;;;4991661;28;20171;-45
2024/02/16 11:16:02;;;;;;;253.02;86.55;;;;;;;;;;4991416;28;20833;-45
2024/02/16 11:18:29;;;;;;;253.13;86.63;;;;;;;;;;4991298;28;20184;-45
2024/02/16 11:20:55;;;;;;;249.82;86.13;;;;;;;;;;4992612;28;20187;-45
2024/02/16 11:23:29;;;;;;;251.63;87.13;;;;;;;;;;4991200;28;20192;-45
2024/02/16 11:25:55;;;;;;;252.73;87.40;;;;;;;;;;4991266;28;20171;-44
2024/02/16 11:28:21;;;;;;;253.10;86.80;;;;;;;;;;4991351;28;20200;-45
2024/02/16 11:30:47;;;;;;;253.57;87.10;;;;;;;;;;4991374;28;20908;-44
2024/02/16 11:33:14;;;;;;;252.57;87.73;;;;;;;;;;4991443;28;20175;-45
2024/02/16 11:35:40;;;;;;;252.70;87.32;;;;;;;;;;4991037;28;20418;-45
2024/02/16 11:38:06;;;;;;;254.65;91.25;;;;;;;;;;4991571;28;20188;-44
2024/02/16 11:40:32;;;;;;;249.87;85.30;;;;;;;;;;4991430;28;20257;-45
2024/02/16 11:43:01;;;;;;;249.27;83.17;;;;;;;;;;4991386;28;20415;-45
2024/02/16 11:45:27;;;;;;;246.80;81.28;;;;;;;;;;4991062;28;20420;-45
2024/02/16 11:48:03;;;;;;;258.48;92.80;;;;;;;;;;4982822;28;20629;-45
2024/02/16 11:50:29;;;;;;;253.25;87.53;;;;;;;;;;4989297;28;20206;-45
2024/02/16 11:52:55;;;;;;;250.93;83.10;;;;;;;;;;4995091;28;20176;-45
2024/02/16 11:55:21;;;;;;;249.73;82.20;;;;;;;;;;4994954;28;20415;-44
2024/02/16 11:57:50;;;;;;;248.20;83.60;;;;;;;;;;4994887;28;20502;-44
2024/02/16 12:00:16;;;;;;;246.93;82.15;;;;;;;;;;4994694;28;20443;-45
2024/02/16 12:02:43;;;;;;;245.85;80.85;;;;;;;;;;4994945;28;20737;-44
2024/02/16 12:05:09;;;;;;;249.45;82.68;;;;;;;;;;4994572;28;20200;-45
2024/02/16 12:07:39;;;;;;;247.52;82.05;;;;;;;;;;4994699;28;20604;-45
2024/02/16 12:10:06;;;;;;;247.48;81.43;;;;;;;;;;4993988;28;20192;-44
2024/02/16 12:12:32;;;;;;;248.23;83.65;;;;;;;;;;4994887;28;20680;-45
2024/02/16 12:14:59;;;;;;;247.85;82.05;;;;;;;;;;4993552;28;20636;-45
2024/02/16 12:17:26;;;;;;;249.13;85.53;;;;;;;;;;4994320;28;20179;-44
2024/02/16 12:19:52;;;;;;;256.45;89.38;;;;;;;;;;4987759;28;20320;-44
2024/02/16 12:22:19;;;;;;;246.00;80.07;;;;;;;;;;4991708;28;20676;-45
2024/02/16 12:24:45;;;;;;;249.65;81.68;;;;;;;;;;4993800;28;20177;-45
2024/02/16 12:27:11;;;;;;;250.15;84.90;;;;;;;;;;4993754;28;20283;-45
2024/02/16 12:29:38;;;;;;;246.82;82.22;;;;;;;;;;4994401;28;20201;-45
2024/02/16 12:32:05;;;;;;;250.38;82.15;;;;;;;;;;4993644;28;20262;-44
2024/02/16 12:34:31;;;;;;;246.80;81.90;;;;;;;;;;4994443;28;20646;-44
2024/02/16 12:36:57;;;;;;;246.05;80.47;;;;;;;;;;4994273;28;20168;-45
2024/02/16 12:39:23;;;;;;;249.00;81.18;;;;;;;;;;4994437;28;20713;-45
2024/02/16 12:41:49;;;;;;;244.00;77.47;;;;;;;;;;4994904;28;20188;-45
2024/02/16 12:44:15;;;;;;;249.65;85.65;;;;;;;;;;4994272;28;20414;-45
2024/02/16 12:46:43;;;;;;;250.50;86.38;;;;;;;;;;4993734;28;20178;-44
2024/02/16 12:49:09;;;;;;;247.38;82.18;;;;;;;;;;4994202;28;20670;-44
2024/02/16 12:51:35;;;;;;;244.85;78.00;;;;;;;;;;4992813;28;20548;-44
2024/02/16 12:54:03;;;;;;;247.27;81.97;;;;;;;;;;4994409;28;20225;-44
2024/02/16 12:56:30;;;;;;;247.23;80.35;;;;;;;;;;4993900;28;20162;-45
2024/02/16 12:58:56;;;;;;;245.32;78.03;;;;;;;;;;4993309;28;20205;-45
2024/02/16 13:01:22;;;;;;;249.25;79.75;;;;;;;;;;4993487;28;20257;-45
2024/02/16 13:03:48;;;;;;;249.40;79.70;;;;;;;;;;4992313;28;20193;-45
2024/02/16 13:06:14;;;;;;;244.10;76.93;;;;;;;;;;4992823;28;20432;-44
2024/02/16 13:08:40;;;;;;;249.85;82.88;;;;;;;;;;4993505;28;20460;-44
2024/02/16 13:11:06;;;;;;;244.07;76.60;;;;;;;;;;4993925;28;20729;-44
2024/02/16 13:13:32;;;;;;;250.40;82.22;;;;;;;;;;4992460;28;20458;-44
2024/02/16 13:15:59;;;;;;;244.02;76.50;;;;;;;;;;4993307;28;20179;-45
2024/02/16 13:18:25;;;;;;;244.98;77.55;;;;;;;;;;4993657;28;20514;-45
2024/02/16 13:20:51;;;;;;;255.00;84.03;;;;;;;;;;4991723;28;20606;-45
2024/02/16 13:23:17;;;;;;;241.93;73.33;;;;;;;;;;4992228;28;20209;-45
2024/02/16 13:25:43;;;;;;;244.53;74.87;;;;;;;;;;4993216;28;20800;-44
2024/02/16 13:28:08;;;;;;;242.37;71.63;;;;;;;;;;4990964;28;20819;-44
2024/02/16 13:30:34;;;;;;;242.53;72.40;;;;;;;;;;4993554;28;20890;-45
2024/02/16 13:33:00;;;;;;;246.13;74.87;;;;;;;;;;4991473;28;20408;-45
2024/02/16 13:35:28;;;;;;;244.90;70.80;;;;;;;;;;4992870;28;20487;-44
2024/02/16 13:37:54;;;;;;;247.88;73.75;;;;;;;;;;4992254;28;20406;-45
2024/02/16 13:40:21;;;;;;;240.97;66.97;;;;;;;;;;4991778;28;20196;-44
2024/02/16 13:42:48;;;;;;;242.30;70.03;;;;;;;;;;4992769;28;20416;-44
2024/02/16 13:45:14;;;;;;;244.20;70.28;;;;;;;;;;4992809;28;20259;-45
2024/02/16 13:47:40;;;;;;;241.07;65.75;;;;;;;;;;4992907;28;20256;-45
2024/02/16 13:50:09;;;;;;;240.90;66.47;;;;;;;;;;4993012;28;20295;-44
2024/02/16 13:52:35;;;;;;;241.85;65.32;;;;;;;;;;4993034;28;20893;-45
2024/02/16 13:55:01;;;;;;;240.18;65.07;;;;;;;;;;4992769;28;20641;-45
2024/02/16 13:57:27;;;;;;;242.90;68.05;;;;;;;;;;4992373;28;20615;-45
2024/02/16 13:59:53;;;;;;;241.43;66.68;;;;;;;;;;4992540;28;20255;-45